CPA792 VHHH-RJCC
Flight info
| Callsign | CPA792 |
|---|---|
| Flight time | 4h 12m |
| Altitude | 37000 |
| Route | DALOL V631 ENVAR M750 INVAM/N0485F390 M750 MOMPA Y451 HKC Y45 MARCO Y141 SAMON Y14 GOLDO Y19 MRE Y13 MEKAB Y137 NONUT Y11 NAVER |
| Aircraft | B77W/H-SDE1E2E3FGHIJ2J3J4J5M1RWXY/LB1D1 |
Departure
| Time | 2026-05-08 14:52 |
|---|---|
| Airport | Hong Kong International Airport (VHHH) |
Arrival
| Time | 2026-05-08 19:04 |
|---|---|
| Airport | New Chitose Airport (RJCC) |
| Time | Latitude | Longitude | Altitude | Speed | Heading |
|---|---|---|---|---|---|
| 2026-05-08 14:10 | 22.30888 | 113.91909 | 42 ft | 0 kts | 251° |
| 2026-05-08 14:40 | 22.30888 | 113.91910 | 42 ft | 1 kts | 251° |
| 2026-05-08 14:41 | 22.30893 | 113.91926 | 42 ft | 2 kts | 251° |
| 2026-05-08 14:41 | 22.30898 | 113.91941 | 42 ft | 2 kts | 251° |
| 2026-05-08 14:41 | 22.30903 | 113.91956 | 42 ft | 2 kts | 251° |
| 2026-05-08 14:41 | 22.30906 | 113.91966 | 42 ft | 2 kts | 249° |
| 2026-05-08 14:42 | 22.30914 | 113.91979 | 42 ft | 2 kts | 216° |
| 2026-05-08 14:42 | 22.30927 | 113.91986 | 42 ft | 2 kts | 188° |
| 2026-05-08 14:42 | 22.30941 | 113.91985 | 42 ft | 1 kts | 163° |
| 2026-05-08 14:42 | 22.30946 | 113.91984 | 42 ft | 0 kts | 160° |
| 2026-05-08 14:45 | 22.30938 | 113.91987 | 42 ft | 3 kts | 160° |
| 2026-05-08 14:45 | 22.30908 | 113.91998 | 42 ft | 5 kts | 160° |
| 2026-05-08 14:45 | 22.30864 | 113.92015 | 42 ft | 4 kts | 160° |
| 2026-05-08 14:45 | 22.30829 | 113.92027 | 42 ft | 6 kts | 163° |
| 2026-05-08 14:46 | 22.30787 | 113.92047 | 42 ft | 6 kts | 136° |
| 2026-05-08 14:46 | 22.30779 | 113.92087 | 42 ft | 5 kts | 72° |
| 2026-05-08 14:46 | 22.30775 | 113.92132 | 42 ft | 6 kts | 129° |
| 2026-05-08 14:46 | 22.30724 | 113.92156 | 42 ft | 9 kts | 161° |
| 2026-05-08 14:47 | 22.30681 | 113.92207 | 42 ft | 10 kts | 92° |
| 2026-05-08 14:47 | 22.30704 | 113.92290 | 42 ft | 12 kts | 71° |
| 2026-05-08 14:47 | 22.30734 | 113.92385 | 42 ft | 14 kts | 70° |
| 2026-05-08 14:47 | 22.30769 | 113.92490 | 42 ft | 15 kts | 71° |
| 2026-05-08 14:48 | 22.30805 | 113.92604 | 42 ft | 16 kts | 72° |
| 2026-05-08 14:48 | 22.30843 | 113.92728 | 42 ft | 17 kts | 71° |
| 2026-05-08 14:48 | 22.30886 | 113.92856 | 42 ft | 18 kts | 71° |
| 2026-05-08 14:48 | 22.30930 | 113.92990 | 42 ft | 19 kts | 71° |
| 2026-05-08 14:49 | 22.30953 | 113.93099 | 42 ft | 5 kts | 97° |
| 2026-05-08 14:49 | 22.30940 | 113.93147 | 42 ft | 7 kts | 108° |
| 2026-05-08 14:49 | 22.30914 | 113.93196 | 42 ft | 8 kts | 144° |
| 2026-05-08 14:49 | 22.30857 | 113.93223 | 42 ft | 9 kts | 158° |
| 2026-05-08 14:50 | 22.30791 | 113.93247 | 42 ft | 10 kts | 161° |
| 2026-05-08 14:50 | 22.30740 | 113.93251 | 42 ft | 6 kts | 219° |
| 2026-05-08 14:50 | 22.30727 | 113.93226 | 42 ft | 0 kts | 247° |
| 2026-05-08 14:51 | 22.30726 | 113.93223 | 42 ft | 4 kts | 247° |
| 2026-05-08 14:51 | 22.30643 | 113.92978 | 42 ft | 71 kts | 251° |
| 2026-05-08 14:51 | 22.30402 | 113.92229 | 42 ft | 137 kts | 251° |
| 2026-05-08 14:51 | 22.30029 | 113.91073 | 206 ft | 178 kts | 251° |
| 2026-05-08 14:52 | 22.29615 | 113.89809 | 812 ft | 185 kts | 251° |
| 2026-05-08 14:52 | 22.28719 | 113.87025 | 1762 ft | 211 kts | 249° |
| 2026-05-08 14:52 | 22.28020 | 113.85653 | 2377 ft | 212 kts | 236° |
| 2026-05-08 14:53 | 22.27194 | 113.84345 | 3038 ft | 213 kts | 234° |
| 2026-05-08 14:53 | 22.26332 | 113.82989 | 3519 ft | 225 kts | 234° |
| 2026-05-08 14:53 | 22.25176 | 113.81804 | 3911 ft | 237 kts | 206° |
| 2026-05-08 14:53 | 22.23552 | 113.81293 | 4321 ft | 250 kts | 183° |
| 2026-05-08 14:54 | 22.21796 | 113.81202 | 5034 ft | 253 kts | 180° |
| 2026-05-08 14:54 | 22.20082 | 113.81441 | 5745 ft | 253 kts | 157° |
| 2026-05-08 14:54 | 22.18623 | 113.82477 | 6363 ft | 256 kts | 135° |
| 2026-05-08 14:54 | 22.17386 | 113.83875 | 7092 ft | 257 kts | 131° |
| 2026-05-08 14:55 | 22.16273 | 113.85365 | 7717 ft | 261 kts | 118° |
| 2026-05-08 14:55 | 22.15494 | 113.87161 | 8363 ft | 265 kts | 112° |
| 2026-05-08 14:55 | 22.14799 | 113.89022 | 8871 ft | 271 kts | 111° |
| 2026-05-08 14:55 | 22.14097 | 113.90899 | 8980 ft | 271 kts | 110° |
| 2026-05-08 14:56 | 22.13639 | 113.92878 | 9006 ft | 278 kts | 97° |
| 2026-05-08 14:56 | 22.13428 | 113.95009 | 9386 ft | 293 kts | 95° |
| 2026-05-08 14:56 | 22.13239 | 113.97213 | 10038 ft | 298 kts | 95° |
| 2026-05-08 14:56 | 22.13043 | 113.99458 | 10483 ft | 312 kts | 95° |
| 2026-05-08 14:57 | 22.12826 | 114.01888 | 10815 ft | 331 kts | 95° |
| 2026-05-08 14:57 | 22.12599 | 114.04411 | 11218 ft | 347 kts | 95° |
| 2026-05-08 14:57 | 22.12350 | 114.07036 | 11640 ft | 363 kts | 98° |
| 2026-05-08 14:57 | 22.11894 | 114.09798 | 11964 ft | 382 kts | 101° |
| 2026-05-08 14:58 | 22.11377 | 114.12682 | 11998 ft | 399 kts | 101° |
| 2026-05-08 14:58 | 22.10854 | 114.15645 | 11996 ft | 403 kts | 100° |
| 2026-05-08 14:58 | 22.10338 | 114.18607 | 12001 ft | 403 kts | 100° |
| 2026-05-08 14:58 | 22.09822 | 114.21587 | 11999 ft | 404 kts | 100° |
| 2026-05-08 14:59 | 22.09304 | 114.24604 | 12218 ft | 416 kts | 100° |
| 2026-05-08 14:59 | 22.08264 | 114.30690 | 14136 ft | 414 kts | 100° |
| 2026-05-08 14:59 | 22.07683 | 114.33759 | 14940 ft | 420 kts | 105° |
| 2026-05-08 15:00 | 22.06679 | 114.36691 | 15689 ft | 426 kts | 115° |
| 2026-05-08 15:00 | 22.05170 | 114.39478 | 16528 ft | 430 kts | 123° |
| 2026-05-08 15:00 | 22.03503 | 114.42136 | 17321 ft | 434 kts | 124° |
| 2026-05-08 15:00 | 22.01797 | 114.44830 | 18086 ft | 439 kts | 124° |
| 2026-05-08 15:01 | 22.00064 | 114.47568 | 18792 ft | 446 kts | 124° |
| 2026-05-08 15:01 | 21.98303 | 114.50353 | 19554 ft | 450 kts | 123° |
| 2026-05-08 15:01 | 21.96550 | 114.53128 | 20254 ft | 456 kts | 123° |
| 2026-05-08 15:01 | 21.94671 | 114.55928 | 20971 ft | 460 kts | 126° |
| 2026-05-08 15:02 | 21.92724 | 114.58667 | 21630 ft | 466 kts | 127° |
| 2026-05-08 15:02 | 21.90742 | 114.61453 | 22301 ft | 471 kts | 126° |
| 2026-05-08 15:02 | 21.88733 | 114.64284 | 22914 ft | 477 kts | 127° |
| 2026-05-08 15:02 | 21.86727 | 114.67114 | 23557 ft | 481 kts | 127° |
| 2026-05-08 15:03 | 21.84671 | 114.70019 | 24210 ft | 486 kts | 127° |
| 2026-05-08 15:03 | 21.82633 | 114.72900 | 24834 ft | 491 kts | 127° |
| 2026-05-08 15:03 | 21.80551 | 114.75844 | 25450 ft | 495 kts | 128° |
| 2026-05-08 15:03 | 21.78475 | 114.78822 | 25994 ft | 502 kts | 125° |
| 2026-05-08 15:04 | 21.76684 | 114.82105 | 26550 ft | 508 kts | 116° |
| 2026-05-08 15:04 | 21.75373 | 114.85639 | 27156 ft | 512 kts | 107° |
| 2026-05-08 15:04 | 21.74557 | 114.89359 | 27752 ft | 516 kts | 98° |
| 2026-05-08 15:04 | 21.74251 | 114.93221 | 28277 ft | 521 kts | 90° |
| 2026-05-08 15:05 | 21.74249 | 114.97139 | 28808 ft | 526 kts | 89° |
| 2026-05-08 15:05 | 21.74274 | 115.01076 | 29397 ft | 530 kts | 88° |
| 2026-05-08 15:05 | 21.74294 | 115.05041 | 30201 ft | 529 kts | 88° |
| 2026-05-08 15:05 | 21.74307 | 115.08907 | 31205 ft | 523 kts | 88° |
| 2026-05-08 15:06 | 21.74316 | 115.12794 | 32117 ft | 518 kts | 88° |
| 2026-05-08 15:06 | 21.74320 | 115.16666 | 32913 ft | 516 kts | 88° |
| 2026-05-08 15:06 | 21.74322 | 115.20521 | 33640 ft | 516 kts | 88° |
| 2026-05-08 15:06 | 21.74321 | 115.24339 | 34324 ft | 516 kts | 88° |
| 2026-05-08 15:07 | 21.74318 | 115.28223 | 35030 ft | 515 kts | 88° |
| 2026-05-08 15:07 | 21.74313 | 115.32025 | 35706 ft | 513 kts | 88° |
| 2026-05-08 15:07 | 21.74306 | 115.35841 | 36343 ft | 512 kts | 87° |
| 2026-05-08 15:07 | 21.74298 | 115.39696 | 36854 ft | 513 kts | 87° |
| 2026-05-08 15:08 | 21.74289 | 115.43567 | 36988 ft | 518 kts | 87° |
| 2026-05-08 15:08 | 21.74282 | 115.46144 | 36984 ft | 516 kts | 87° |
| 2026-05-08 15:08 | 21.74253 | 115.55143 | 36990 ft | 514 kts | 87° |
| 2026-05-08 15:09 | 21.74225 | 115.62827 | 36988 ft | 514 kts | 87° |
| 2026-05-08 15:09 | 21.74196 | 115.70557 | 36982 ft | 515 kts | 88° |
| 2026-05-08 15:10 | 21.74163 | 115.78199 | 36985 ft | 515 kts | 87° |
| 2026-05-08 15:10 | 21.74126 | 115.85895 | 36980 ft | 514 kts | 87° |
| 2026-05-08 15:11 | 21.74086 | 115.93578 | 36986 ft | 515 kts | 88° |
| 2026-05-08 15:11 | 21.74042 | 116.01266 | 36987 ft | 515 kts | 87° |
| 2026-05-08 15:12 | 21.73994 | 116.09000 | 36986 ft | 516 kts | 88° |
| 2026-05-08 15:12 | 21.73943 | 116.16634 | 36988 ft | 513 kts | 87° |
| 2026-05-08 15:13 | 21.73888 | 116.24352 | 36985 ft | 517 kts | 87° |
| 2026-05-08 15:13 | 21.73830 | 116.32059 | 36985 ft | 512 kts | 87° |
| 2026-05-08 15:14 | 21.73768 | 116.39722 | 36984 ft | 513 kts | 87° |
| 2026-05-08 15:14 | 21.73703 | 116.47385 | 36987 ft | 512 kts | 87° |
| 2026-05-08 15:15 | 21.73635 | 116.55048 | 36986 ft | 514 kts | 87° |
| 2026-05-08 15:15 | 21.73562 | 116.62682 | 36989 ft | 512 kts | 87° |
| 2026-05-08 15:16 | 21.73487 | 116.70374 | 36983 ft | 514 kts | 87° |
| 2026-05-08 15:16 | 21.73804 | 116.78017 | 36984 ft | 508 kts | 76° |
| 2026-05-08 15:17 | 21.75803 | 116.85194 | 36990 ft | 501 kts | 64° |
| 2026-05-08 15:17 | 21.78342 | 116.92175 | 36985 ft | 501 kts | 64° |
| 2026-05-08 15:18 | 21.80873 | 116.99146 | 36982 ft | 501 kts | 64° |
| 2026-05-08 15:18 | 21.83409 | 117.06152 | 36988 ft | 499 kts | 64° |
| 2026-05-08 15:19 | 21.85941 | 117.13165 | 36988 ft | 501 kts | 64° |
| 2026-05-08 15:19 | 21.88458 | 117.20149 | 36988 ft | 502 kts | 64° |
| 2026-05-08 15:20 | 21.90971 | 117.27136 | 36988 ft | 502 kts | 64° |
| 2026-05-08 15:20 | 21.93503 | 117.34187 | 36989 ft | 504 kts | 64° |
| 2026-05-08 15:21 | 21.96016 | 117.41196 | 36989 ft | 502 kts | 64° |
| 2026-05-08 15:21 | 21.98524 | 117.48183 | 36989 ft | 505 kts | 63° |
| 2026-05-08 15:22 | 22.01872 | 117.54797 | 36998 ft | 500 kts | 53° |
| 2026-05-08 15:22 | 22.05500 | 117.61169 | 36994 ft | 496 kts | 53° |
| 2026-05-08 15:23 | 22.09119 | 117.67534 | 36984 ft | 499 kts | 54° |
| 2026-05-08 15:23 | 22.12726 | 117.73893 | 36997 ft | 498 kts | 54° |
| 2026-05-08 15:24 | 22.16356 | 117.80300 | 37001 ft | 500 kts | 54° |
| 2026-05-08 15:24 | 22.19992 | 117.86730 | 37001 ft | 500 kts | 54° |
| 2026-05-08 15:25 | 22.23595 | 117.93109 | 37004 ft | 499 kts | 54° |
| 2026-05-08 15:25 | 22.27207 | 117.99513 | 37001 ft | 498 kts | 54° |
| 2026-05-08 15:26 | 22.30893 | 118.05891 | 37007 ft | 501 kts | 53° |
| 2026-05-08 15:26 | 22.34616 | 118.12257 | 37001 ft | 499 kts | 53° |
| 2026-05-08 15:27 | 22.38331 | 118.18621 | 37007 ft | 501 kts | 53° |
| 2026-05-08 15:27 | 22.42007 | 118.24989 | 37010 ft | 501 kts | 53° |
| 2026-05-08 15:28 | 22.45683 | 118.31484 | 37012 ft | 502 kts | 53° |
| 2026-05-08 15:28 | 22.49310 | 118.37898 | 37010 ft | 502 kts | 54° |
| 2026-05-08 15:29 | 22.52941 | 118.44324 | 37015 ft | 503 kts | 53° |
| 2026-05-08 15:29 | 22.56596 | 118.50799 | 37018 ft | 502 kts | 53° |
| 2026-05-08 15:30 | 22.60272 | 118.57262 | 37010 ft | 502 kts | 53° |
| 2026-05-08 15:30 | 22.63937 | 118.63693 | 37015 ft | 504 kts | 53° |
| 2026-05-08 15:31 | 22.67619 | 118.70163 | 37002 ft | 504 kts | 53° |
| 2026-05-08 15:31 | 22.71300 | 118.76642 | 37007 ft | 506 kts | 53° |
| 2026-05-08 15:32 | 22.74998 | 118.83160 | 37004 ft | 504 kts | 53° |
| 2026-05-08 15:32 | 22.78655 | 118.89613 | 37002 ft | 505 kts | 53° |
| 2026-05-08 15:33 | 22.82335 | 118.96114 | 37001 ft | 506 kts | 54° |
| 2026-05-08 15:33 | 22.86031 | 119.02653 | 37002 ft | 505 kts | 53° |
| 2026-05-08 15:34 | 22.89718 | 119.09182 | 37004 ft | 507 kts | 53° |
| 2026-05-08 15:34 | 22.93396 | 119.15705 | 37005 ft | 506 kts | 53° |
| 2026-05-08 15:35 | 22.97095 | 119.22274 | 36995 ft | 509 kts | 53° |
| 2026-05-08 15:35 | 23.00776 | 119.28820 | 36987 ft | 508 kts | 53° |
| 2026-05-08 15:36 | 23.03843 | 119.34280 | 36984 ft | 509 kts | 53° |
| 2026-05-08 15:36 | 23.08151 | 119.41960 | 36987 ft | 508 kts | 53° |
| 2026-05-08 15:37 | 23.11837 | 119.48537 | 36993 ft | 511 kts | 53° |
| 2026-05-08 15:37 | 23.15556 | 119.55185 | 36996 ft | 510 kts | 53° |
| 2026-05-08 15:38 | 23.19231 | 119.61760 | 36997 ft | 510 kts | 53° |
| 2026-05-08 15:38 | 23.22913 | 119.68353 | 36981 ft | 510 kts | 54° |
| 2026-05-08 15:39 | 23.26588 | 119.74940 | 36980 ft | 511 kts | 54° |
| 2026-05-08 15:39 | 23.30282 | 119.81569 | 36982 ft | 512 kts | 54° |
| 2026-05-08 15:40 | 23.33962 | 119.88184 | 36979 ft | 511 kts | 53° |
| 2026-05-08 15:40 | 23.38183 | 119.94329 | 36980 ft | 501 kts | 39° |
| 2026-05-08 15:41 | 23.43221 | 119.99571 | 36981 ft | 498 kts | 37° |
| 2026-05-08 15:41 | 23.48243 | 120.04735 | 36984 ft | 499 kts | 37° |
| 2026-05-08 15:42 | 23.53304 | 120.09946 | 36990 ft | 500 kts | 37° |
| 2026-05-08 15:42 | 23.58332 | 120.15134 | 36997 ft | 498 kts | 38° |
| 2026-05-08 15:43 | 23.63393 | 120.20361 | 36995 ft | 499 kts | 37° |
| 2026-05-08 15:43 | 23.68420 | 120.25559 | 37000 ft | 498 kts | 37° |
| 2026-05-08 15:44 | 23.73472 | 120.30789 | 37004 ft | 499 kts | 37° |
| 2026-05-08 15:44 | 23.78524 | 120.36025 | 37007 ft | 500 kts | 37° |
| 2026-05-08 15:45 | 23.83551 | 120.41242 | 37010 ft | 500 kts | 37° |
| 2026-05-08 15:45 | 23.88610 | 120.46498 | 37009 ft | 501 kts | 37° |
| 2026-05-08 15:46 | 23.93636 | 120.51750 | 37011 ft | 500 kts | 38° |
| 2026-05-08 15:46 | 23.98643 | 120.57034 | 37027 ft | 501 kts | 38° |
| 2026-05-08 15:47 | 24.03656 | 120.62328 | 37034 ft | 500 kts | 38° |
| 2026-05-08 15:47 | 24.08673 | 120.67631 | 37033 ft | 501 kts | 38° |
| 2026-05-08 15:48 | 24.16203 | 120.75601 | 37054 ft | 502 kts | 38° |
| 2026-05-08 15:49 | 24.21245 | 120.80944 | 37076 ft | 502 kts | 38° |
| 2026-05-08 15:49 | 24.26266 | 120.86272 | 37123 ft | 501 kts | 38° |
| 2026-05-08 15:50 | 24.31291 | 120.91609 | 37155 ft | 502 kts | 38° |
| 2026-05-08 15:50 | 24.36298 | 120.96934 | 37194 ft | 502 kts | 38° |
| 2026-05-08 15:51 | 24.41328 | 121.02358 | 37217 ft | 507 kts | 42° |
| 2026-05-08 15:51 | 24.45832 | 121.08409 | 37246 ft | 511 kts | 45° |
| 2026-05-08 15:52 | 24.50260 | 121.14522 | 37270 ft | 511 kts | 45° |
| 2026-05-08 15:52 | 24.54728 | 121.20692 | 37266 ft | 512 kts | 45° |
| 2026-05-08 15:53 | 24.59145 | 121.26800 | 37248 ft | 511 kts | 45° |
| 2026-05-08 15:53 | 24.63617 | 121.32987 | 37180 ft | 513 kts | 45° |
| 2026-05-08 15:54 | 24.68033 | 121.39106 | 37136 ft | 512 kts | 45° |
| 2026-05-08 15:54 | 24.72498 | 121.45299 | 37110 ft | 510 kts | 45° |
| 2026-05-08 15:55 | 24.76921 | 121.51440 | 37099 ft | 513 kts | 45° |
| 2026-05-08 15:55 | 24.83561 | 121.60674 | 37088 ft | 515 kts | 45° |
| 2026-05-08 15:56 | 24.88007 | 121.66869 | 37070 ft | 513 kts | 46° |
| 2026-05-08 15:56 | 24.92510 | 121.72928 | 37078 ft | 514 kts | 43° |
| 2026-05-08 15:57 | 24.97218 | 121.78868 | 37084 ft | 512 kts | 43° |
| 2026-05-08 15:57 | 25.01899 | 121.84798 | 37084 ft | 513 kts | 43° |
| 2026-05-08 15:58 | 25.06602 | 121.90780 | 37075 ft | 513 kts | 43° |
| 2026-05-08 15:58 | 25.11267 | 121.96729 | 37082 ft | 514 kts | 43° |
| 2026-05-08 15:59 | 25.15923 | 122.02708 | 37076 ft | 514 kts | 43° |
| 2026-05-08 15:59 | 25.20585 | 122.08755 | 37076 ft | 514 kts | 43° |
| 2026-05-08 16:00 | 25.25234 | 122.14791 | 37076 ft | 516 kts | 43° |
| 2026-05-08 16:00 | 25.29858 | 122.20804 | 37074 ft | 513 kts | 43° |
| 2026-05-08 16:01 | 25.34479 | 122.26817 | 37082 ft | 515 kts | 43° |
| 2026-05-08 16:01 | 25.39127 | 122.32873 | 37075 ft | 515 kts | 43° |
| 2026-05-08 16:02 | 25.43789 | 122.38958 | 37078 ft | 515 kts | 43° |
| 2026-05-08 16:02 | 25.48427 | 122.45016 | 37083 ft | 517 kts | 43° |
| 2026-05-08 16:03 | 25.53095 | 122.51110 | 37076 ft | 516 kts | 43° |
| 2026-05-08 16:03 | 25.57777 | 122.57188 | 37075 ft | 518 kts | 43° |
| 2026-05-08 16:04 | 25.62460 | 122.63278 | 37079 ft | 517 kts | 43° |
| 2026-05-08 16:04 | 25.67141 | 122.69375 | 37060 ft | 519 kts | 43° |
| 2026-05-08 16:05 | 25.71828 | 122.75490 | 37065 ft | 517 kts | 43° |
| 2026-05-08 16:05 | 25.76526 | 122.81624 | 37064 ft | 520 kts | 43° |
| 2026-05-08 16:06 | 25.81202 | 122.87742 | 37064 ft | 518 kts | 43° |
| 2026-05-08 16:06 | 25.85853 | 122.93832 | 37070 ft | 520 kts | 43° |
| 2026-05-08 16:07 | 25.90527 | 122.99962 | 37070 ft | 521 kts | 43° |
| 2026-05-08 16:07 | 25.95212 | 123.06118 | 37076 ft | 522 kts | 43° |
| 2026-05-08 16:08 | 25.99933 | 123.12332 | 37071 ft | 520 kts | 43° |
| 2026-05-08 16:08 | 26.04584 | 123.18461 | 37075 ft | 523 kts | 43° |
| 2026-05-08 16:09 | 26.08514 | 123.23646 | 37074 ft | 521 kts | 43° |
| 2026-05-08 16:09 | 26.13969 | 123.30853 | 37092 ft | 524 kts | 43° |
| 2026-05-08 16:10 | 26.18652 | 123.37051 | 37092 ft | 522 kts | 43° |
| 2026-05-08 16:10 | 26.23334 | 123.43253 | 37093 ft | 525 kts | 43° |
| 2026-05-08 16:11 | 26.28038 | 123.49496 | 37094 ft | 523 kts | 43° |
| 2026-05-08 16:11 | 26.32724 | 123.55722 | 37092 ft | 524 kts | 43° |
| 2026-05-08 16:12 | 26.37418 | 123.61968 | 37097 ft | 524 kts | 43° |
| 2026-05-08 16:12 | 26.42128 | 123.68243 | 37087 ft | 526 kts | 43° |
| 2026-05-08 16:13 | 26.46790 | 123.74464 | 37081 ft | 527 kts | 43° |
| 2026-05-08 16:13 | 26.51503 | 123.80759 | 37083 ft | 527 kts | 43° |
| 2026-05-08 16:14 | 26.56236 | 123.87094 | 37082 ft | 527 kts | 43° |
| 2026-05-08 16:14 | 26.60923 | 123.93374 | 37079 ft | 527 kts | 43° |
| 2026-05-08 16:15 | 26.65660 | 123.99729 | 37081 ft | 528 kts | 43° |
| 2026-05-08 16:15 | 26.70368 | 124.06031 | 37079 ft | 526 kts | 43° |
| 2026-05-08 16:16 | 26.75066 | 124.12318 | 37086 ft | 529 kts | 43° |
| 2026-05-08 16:16 | 26.79793 | 124.18655 | 37084 ft | 527 kts | 43° |
| 2026-05-08 16:17 | 26.83706 | 124.23905 | 37093 ft | 531 kts | 43° |
| 2026-05-08 16:17 | 26.89202 | 124.31297 | 37097 ft | 527 kts | 43° |
| 2026-05-08 16:18 | 26.93911 | 124.37635 | 37095 ft | 531 kts | 43° |
| 2026-05-08 16:18 | 26.98645 | 124.44020 | 37101 ft | 529 kts | 43° |
| 2026-05-08 16:19 | 27.03331 | 124.50342 | 37104 ft | 531 kts | 43° |
| 2026-05-08 16:19 | 27.08043 | 124.56707 | 37108 ft | 531 kts | 43° |
| 2026-05-08 16:20 | 27.12780 | 124.63118 | 37110 ft | 529 kts | 43° |
| 2026-05-08 16:20 | 27.17537 | 124.69561 | 37099 ft | 535 kts | 43° |
| 2026-05-08 16:21 | 27.22254 | 124.75966 | 37100 ft | 532 kts | 43° |
| 2026-05-08 16:21 | 27.26973 | 124.82379 | 37104 ft | 531 kts | 43° |
| 2026-05-08 16:22 | 27.30895 | 124.87717 | 37104 ft | 532 kts | 43° |
| 2026-05-08 16:22 | 27.36385 | 124.95200 | 37105 ft | 531 kts | 43° |
| 2026-05-08 16:23 | 27.41086 | 125.01609 | 37104 ft | 531 kts | 42° |
| 2026-05-08 16:23 | 27.45845 | 125.08024 | 37104 ft | 529 kts | 42° |
| 2026-05-08 16:24 | 27.50574 | 125.14401 | 37104 ft | 531 kts | 42° |
| 2026-05-08 16:24 | 27.55326 | 125.20824 | 37104 ft | 531 kts | 42° |
| 2026-05-08 16:25 | 27.60073 | 125.27249 | 37107 ft | 533 kts | 42° |
| 2026-05-08 16:25 | 27.64803 | 125.33666 | 37105 ft | 532 kts | 42° |
| 2026-05-08 16:26 | 27.69555 | 125.40119 | 37109 ft | 534 kts | 42° |
| 2026-05-08 16:26 | 27.74301 | 125.46577 | 37108 ft | 532 kts | 42° |
| 2026-05-08 16:27 | 27.79045 | 125.53040 | 37109 ft | 532 kts | 42° |
| 2026-05-08 16:27 | 27.83750 | 125.59461 | 37108 ft | 530 kts | 42° |
| 2026-05-08 16:28 | 27.88508 | 125.65959 | 37105 ft | 535 kts | 43° |
| 2026-05-08 16:28 | 27.93228 | 125.72420 | 37091 ft | 531 kts | 43° |
| 2026-05-08 16:29 | 27.97954 | 125.78897 | 37092 ft | 534 kts | 43° |
| 2026-05-08 16:29 | 28.02680 | 125.85386 | 37091 ft | 534 kts | 43° |
| 2026-05-08 16:30 | 28.07418 | 125.91898 | 37094 ft | 535 kts | 43° |
| 2026-05-08 16:30 | 28.12133 | 125.98395 | 37101 ft | 530 kts | 43° |
| 2026-05-08 16:31 | 28.16848 | 126.04892 | 37101 ft | 536 kts | 43° |
| 2026-05-08 16:31 | 28.21584 | 126.11435 | 37100 ft | 536 kts | 43° |
| 2026-05-08 16:32 | 28.26334 | 126.18006 | 37099 ft | 536 kts | 43° |
| 2026-05-08 16:32 | 28.31036 | 126.24524 | 37107 ft | 533 kts | 42° |
| 2026-05-08 16:33 | 28.35776 | 126.31095 | 37103 ft | 540 kts | 43° |
| 2026-05-08 16:33 | 28.40514 | 126.37685 | 37104 ft | 535 kts | 43° |
| 2026-05-08 16:34 | 28.45229 | 126.44245 | 37109 ft | 538 kts | 43° |
| 2026-05-08 16:34 | 28.49958 | 126.50841 | 37108 ft | 535 kts | 43° |
| 2026-05-08 16:35 | 28.54675 | 126.57426 | 37109 ft | 538 kts | 43° |
| 2026-05-08 16:35 | 28.59408 | 126.64045 | 37108 ft | 537 kts | 43° |
| 2026-05-08 16:36 | 28.64139 | 126.70669 | 37090 ft | 542 kts | 44° |
| 2026-05-08 16:36 | 28.68873 | 126.77316 | 37088 ft | 535 kts | 44° |
| 2026-05-08 16:37 | 28.73616 | 126.83976 | 37094 ft | 542 kts | 44° |
| 2026-05-08 16:37 | 28.78335 | 126.90623 | 37090 ft | 536 kts | 43° |
| 2026-05-08 16:38 | 28.83019 | 126.97223 | 37093 ft | 540 kts | 43° |
| 2026-05-08 16:38 | 28.87726 | 127.03873 | 37092 ft | 534 kts | 43° |
| 2026-05-08 16:39 | 28.92426 | 127.10513 | 37092 ft | 539 kts | 43° |
| 2026-05-08 16:39 | 28.97103 | 127.17144 | 37095 ft | 534 kts | 43° |
| 2026-05-08 16:40 | 29.01781 | 127.23774 | 37102 ft | 542 kts | 43° |
| 2026-05-08 16:40 | 29.06506 | 127.30491 | 37102 ft | 539 kts | 43° |
| 2026-05-08 16:41 | 29.11171 | 127.37131 | 37106 ft | 538 kts | 43° |
| 2026-05-08 16:42 | 29.18200 | 127.47154 | 37112 ft | 540 kts | 43° |
| 2026-05-08 16:42 | 29.22916 | 127.53896 | 37117 ft | 538 kts | 43° |
| 2026-05-08 16:43 | 29.27588 | 127.60584 | 37119 ft | 538 kts | 43° |
| 2026-05-08 16:43 | 29.32267 | 127.67291 | 37104 ft | 541 kts | 44° |
| 2026-05-08 16:44 | 29.36963 | 127.74035 | 37097 ft | 539 kts | 44° |
| 2026-05-08 16:44 | 29.41615 | 127.80726 | 37098 ft | 541 kts | 44° |
| 2026-05-08 16:45 | 29.46288 | 127.87458 | 37104 ft | 542 kts | 44° |
| 2026-05-08 16:45 | 29.50969 | 127.94216 | 37110 ft | 540 kts | 44° |
| 2026-05-08 16:46 | 29.55670 | 128.01006 | 37115 ft | 543 kts | 43° |
| 2026-05-08 16:46 | 29.60346 | 128.07771 | 37112 ft | 539 kts | 44° |
| 2026-05-08 16:47 | 29.65056 | 128.14590 | 37114 ft | 545 kts | 44° |
| 2026-05-08 16:47 | 29.69748 | 128.21402 | 37112 ft | 543 kts | 44° |
| 2026-05-08 16:48 | 29.74424 | 128.28200 | 37113 ft | 542 kts | 44° |
| 2026-05-08 16:48 | 29.79084 | 128.34985 | 37118 ft | 541 kts | 44° |
| 2026-05-08 16:49 | 29.83770 | 128.41821 | 37116 ft | 540 kts | 44° |
| 2026-05-08 16:49 | 29.88418 | 128.48610 | 37107 ft | 540 kts | 44° |
| 2026-05-08 16:50 | 29.93088 | 128.55441 | 37117 ft | 545 kts | 44° |
| 2026-05-08 16:50 | 29.97782 | 128.62326 | 37113 ft | 540 kts | 44° |
| 2026-05-08 16:51 | 30.02406 | 128.69116 | 37099 ft | 542 kts | 44° |
| 2026-05-08 16:51 | 30.07083 | 128.75992 | 37091 ft | 544 kts | 44° |
| 2026-05-08 16:52 | 30.11751 | 128.82872 | 37104 ft | 542 kts | 44° |
| 2026-05-08 16:52 | 30.16387 | 128.89717 | 37097 ft | 542 kts | 44° |
| 2026-05-08 16:53 | 30.23384 | 129.00066 | 37096 ft | 542 kts | 44° |
| 2026-05-08 16:53 | 30.28025 | 129.06943 | 37106 ft | 546 kts | 44° |
| 2026-05-08 16:54 | 30.32691 | 129.13873 | 37087 ft | 544 kts | 45° |
| 2026-05-08 16:54 | 30.37379 | 129.20845 | 37095 ft | 547 kts | 44° |
| 2026-05-08 16:55 | 30.42028 | 129.27774 | 37096 ft | 547 kts | 45° |
| 2026-05-08 16:55 | 30.46673 | 129.34709 | 37086 ft | 544 kts | 45° |
| 2026-05-08 16:56 | 30.51351 | 129.41704 | 37097 ft | 546 kts | 45° |
| 2026-05-08 16:56 | 30.55993 | 129.48657 | 37084 ft | 548 kts | 45° |
| 2026-05-08 16:57 | 30.60672 | 129.55679 | 37088 ft | 546 kts | 45° |
| 2026-05-08 16:57 | 30.65309 | 129.62651 | 37088 ft | 548 kts | 45° |
| 2026-05-08 16:58 | 30.69977 | 129.69681 | 37063 ft | 546 kts | 45° |
| 2026-05-08 16:58 | 30.74616 | 129.76675 | 37058 ft | 551 kts | 46° |
| 2026-05-08 16:59 | 30.79265 | 129.83705 | 37057 ft | 547 kts | 46° |
| 2026-05-08 16:59 | 30.84125 | 129.90556 | 37058 ft | 538 kts | 37° |
| 2026-05-08 17:00 | 30.86886 | 129.93378 | 37055 ft | 527 kts | 28° |
| 2026-05-08 17:00 | 30.89885 | 129.95830 | 37055 ft | 527 kts | 25° |
| 2026-05-08 17:00 | 30.96017 | 130.00572 | 37049 ft | 523 kts | 24° |
| 2026-05-08 17:01 | 31.02107 | 130.05286 | 37054 ft | 526 kts | 24° |
| 2026-05-08 17:01 | 31.08189 | 130.10008 | 37061 ft | 526 kts | 25° |
| 2026-05-08 17:02 | 31.14308 | 130.14772 | 37058 ft | 525 kts | 24° |
| 2026-05-08 17:02 | 31.20401 | 130.19524 | 37060 ft | 527 kts | 24° |
| 2026-05-08 17:03 | 31.26522 | 130.24307 | 37060 ft | 528 kts | 25° |
| 2026-05-08 17:03 | 31.32631 | 130.29089 | 37059 ft | 529 kts | 24° |
| 2026-05-08 17:04 | 31.38734 | 130.33876 | 37065 ft | 527 kts | 24° |
| 2026-05-08 17:04 | 31.44844 | 130.38673 | 37072 ft | 528 kts | 24° |
| 2026-05-08 17:05 | 31.50935 | 130.43466 | 37072 ft | 528 kts | 24° |
| 2026-05-08 17:05 | 31.57070 | 130.48299 | 37072 ft | 529 kts | 25° |
| 2026-05-08 17:06 | 31.63188 | 130.53130 | 37080 ft | 529 kts | 25° |
| 2026-05-08 17:06 | 31.69296 | 130.57956 | 37075 ft | 529 kts | 25° |
| 2026-05-08 17:07 | 31.75488 | 130.62564 | 37083 ft | 527 kts | 21° |
| 2026-05-08 17:07 | 31.81756 | 130.67093 | 37063 ft | 525 kts | 22° |
| 2026-05-08 17:08 | 31.88058 | 130.71663 | 37064 ft | 531 kts | 22° |
| 2026-05-08 17:08 | 31.94298 | 130.76211 | 37063 ft | 527 kts | 22° |
| 2026-05-08 17:09 | 32.00539 | 130.80766 | 37083 ft | 528 kts | 22° |
| 2026-05-08 17:09 | 32.06805 | 130.85353 | 37085 ft | 530 kts | 22° |
| 2026-05-08 17:10 | 32.13118 | 130.89984 | 37075 ft | 528 kts | 22° |
| 2026-05-08 17:10 | 32.19427 | 130.94539 | 37081 ft | 530 kts | 22° |
| 2026-05-08 17:11 | 32.25713 | 130.99074 | 37082 ft | 530 kts | 22° |
| 2026-05-08 17:11 | 32.32057 | 131.03654 | 37080 ft | 532 kts | 22° |
| 2026-05-08 17:12 | 32.38341 | 131.08209 | 37091 ft | 527 kts | 22° |
| 2026-05-08 17:12 | 32.44621 | 131.12797 | 37091 ft | 529 kts | 23° |
| 2026-05-08 17:13 | 32.50912 | 131.17474 | 37090 ft | 533 kts | 23° |
| 2026-05-08 17:13 | 32.57217 | 131.22171 | 37082 ft | 531 kts | 23° |
| 2026-05-08 17:14 | 32.63471 | 131.26836 | 37078 ft | 532 kts | 23° |
| 2026-05-08 17:14 | 32.69722 | 131.31503 | 37098 ft | 529 kts | 23° |
| 2026-05-08 17:15 | 32.75978 | 131.36180 | 37093 ft | 534 kts | 23° |
| 2026-05-08 17:15 | 32.82263 | 131.40889 | 37081 ft | 530 kts | 22° |
| 2026-05-08 17:16 | 32.88554 | 131.45529 | 37086 ft | 530 kts | 22° |
| 2026-05-08 17:16 | 32.94818 | 131.50148 | 37087 ft | 531 kts | 22° |
| 2026-05-08 17:17 | 33.01073 | 131.54771 | 37094 ft | 530 kts | 23° |
| 2026-05-08 17:17 | 33.07390 | 131.59445 | 37082 ft | 534 kts | 22° |
| 2026-05-08 17:18 | 33.13699 | 131.64131 | 37081 ft | 529 kts | 22° |
| 2026-05-08 17:18 | 33.19983 | 131.68799 | 37073 ft | 532 kts | 23° |
| 2026-05-08 17:19 | 33.26532 | 131.72655 | 37062 ft | 521 kts | 13° |
| 2026-05-08 17:19 | 33.33194 | 131.76065 | 37071 ft | 518 kts | 13° |
| 2026-05-08 17:20 | 33.39874 | 131.79481 | 37062 ft | 526 kts | 13° |
| 2026-05-08 17:20 | 33.43210 | 131.81200 | 36920 ft | 519 kts | 13° |
| 2026-05-08 17:20 | 33.46549 | 131.82918 | 37060 ft | 519 kts | 13° |
| 2026-05-08 17:21 | 33.53203 | 131.86342 | 37052 ft | 520 kts | 13° |
| 2026-05-08 17:21 | 33.59916 | 131.89804 | 37068 ft | 525 kts | 13° |
| 2026-05-08 17:22 | 33.66566 | 131.93245 | 37066 ft | 522 kts | 13° |
| 2026-05-08 17:22 | 33.73298 | 131.96730 | 37075 ft | 525 kts | 13° |
| 2026-05-08 17:23 | 33.80011 | 132.00211 | 37082 ft | 524 kts | 13° |
| 2026-05-08 17:23 | 33.86710 | 132.03677 | 37086 ft | 525 kts | 13° |
| 2026-05-08 17:24 | 33.93435 | 132.07165 | 37080 ft | 522 kts | 13° |
| 2026-05-08 17:24 | 34.00167 | 132.10666 | 37081 ft | 527 kts | 13° |
| 2026-05-08 17:25 | 34.06802 | 132.14366 | 37080 ft | 532 kts | 21° |
| 2026-05-08 17:25 | 34.12853 | 132.19849 | 37088 ft | 554 kts | 33° |
| 2026-05-08 17:26 | 34.18657 | 132.25970 | 37086 ft | 552 kts | 33° |
| 2026-05-08 17:26 | 34.24445 | 132.32092 | 37085 ft | 552 kts | 33° |
| 2026-05-08 17:27 | 34.30249 | 132.38234 | 37087 ft | 556 kts | 33° |
| 2026-05-08 17:27 | 34.36062 | 132.44397 | 37088 ft | 554 kts | 33° |
| 2026-05-08 17:28 | 34.41880 | 132.50572 | 37087 ft | 555 kts | 33° |
| 2026-05-08 17:28 | 34.47660 | 132.56718 | 37091 ft | 556 kts | 33° |
| 2026-05-08 17:29 | 34.53476 | 132.62913 | 37088 ft | 552 kts | 33° |
| 2026-05-08 17:29 | 34.59287 | 132.69113 | 37064 ft | 555 kts | 34° |
| 2026-05-08 17:30 | 34.65102 | 132.75331 | 37072 ft | 555 kts | 34° |
| 2026-05-08 17:30 | 34.70927 | 132.81567 | 37075 ft | 559 kts | 34° |
| 2026-05-08 17:31 | 34.76795 | 132.87868 | 37075 ft | 559 kts | 34° |
| 2026-05-08 17:31 | 34.82595 | 132.94107 | 37077 ft | 558 kts | 34° |
| 2026-05-08 17:32 | 34.88403 | 133.00366 | 37070 ft | 557 kts | 33° |
| 2026-05-08 17:32 | 34.94242 | 133.06663 | 37055 ft | 562 kts | 33° |
| 2026-05-08 17:33 | 35.00046 | 133.12942 | 37065 ft | 558 kts | 34° |
| 2026-05-08 17:33 | 35.05911 | 133.19290 | 37056 ft | 562 kts | 33° |
| 2026-05-08 17:34 | 35.11733 | 133.25612 | 37056 ft | 561 kts | 33° |
| 2026-05-08 17:34 | 35.17597 | 133.31987 | 37051 ft | 564 kts | 34° |
| 2026-05-08 17:35 | 35.23479 | 133.38399 | 37062 ft | 562 kts | 34° |
| 2026-05-08 17:35 | 35.29290 | 133.44745 | 37070 ft | 561 kts | 34° |
| 2026-05-08 17:36 | 35.35154 | 133.51158 | 37061 ft | 567 kts | 34° |
| 2026-05-08 17:36 | 35.41035 | 133.57606 | 37065 ft | 567 kts | 34° |
| 2026-05-08 17:37 | 35.46918 | 133.64072 | 37063 ft | 564 kts | 34° |
| 2026-05-08 17:37 | 35.52785 | 133.70529 | 37044 ft | 568 kts | 35° |
| 2026-05-08 17:38 | 35.58667 | 133.77019 | 37042 ft | 566 kts | 35° |
| 2026-05-08 17:38 | 35.64547 | 133.83514 | 37029 ft | 572 kts | 36° |
| 2026-05-08 17:39 | 35.70446 | 133.90051 | 37046 ft | 568 kts | 35° |
| 2026-05-08 17:39 | 35.76325 | 133.96576 | 37044 ft | 574 kts | 36° |
| 2026-05-08 17:40 | 35.82240 | 134.03157 | 37053 ft | 570 kts | 36° |
| 2026-05-08 17:40 | 35.88160 | 134.09755 | 37054 ft | 572 kts | 35° |
| 2026-05-08 17:41 | 35.94031 | 134.16315 | 37053 ft | 569 kts | 35° |
| 2026-05-08 17:41 | 35.99925 | 134.22908 | 37062 ft | 575 kts | 35° |
| 2026-05-08 17:42 | 36.05846 | 134.29553 | 37056 ft | 570 kts | 35° |
| 2026-05-08 17:42 | 36.11735 | 134.36171 | 37023 ft | 574 kts | 36° |
| 2026-05-08 17:43 | 36.17612 | 134.42793 | 37027 ft | 572 kts | 36° |
| 2026-05-08 17:43 | 36.23350 | 134.49640 | 37019 ft | 580 kts | 44° |
| 2026-05-08 17:44 | 36.27993 | 134.57912 | 37018 ft | 584 kts | 54° |
| 2026-05-08 17:44 | 36.32233 | 134.66470 | 37010 ft | 583 kts | 56° |
| 2026-05-08 17:45 | 36.36468 | 134.75069 | 37014 ft | 586 kts | 55° |
| 2026-05-08 17:45 | 36.40700 | 134.83691 | 37012 ft | 585 kts | 55° |
| 2026-05-08 17:46 | 36.44916 | 134.92305 | 37005 ft | 586 kts | 56° |
| 2026-05-08 17:46 | 36.49162 | 135.01004 | 36984 ft | 589 kts | 56° |
| 2026-05-08 17:47 | 36.53381 | 135.09674 | 36991 ft | 587 kts | 56° |
| 2026-05-08 17:47 | 36.56885 | 135.16893 | 36980 ft | 587 kts | 56° |
| 2026-05-08 17:48 | 36.61826 | 135.27094 | 37019 ft | 590 kts | 56° |
| 2026-05-08 17:48 | 36.66031 | 135.35803 | 36991 ft | 588 kts | 56° |
| 2026-05-08 17:49 | 36.70239 | 135.44544 | 37006 ft | 590 kts | 56° |
| 2026-05-08 17:49 | 36.74442 | 135.53294 | 36977 ft | 591 kts | 56° |
| 2026-05-08 17:50 | 36.78644 | 135.62065 | 36997 ft | 592 kts | 57° |
| 2026-05-08 17:50 | 36.82873 | 135.70915 | 36962 ft | 592 kts | 57° |
| 2026-05-08 17:51 | 36.87080 | 135.79744 | 36933 ft | 593 kts | 57° |
| 2026-05-08 17:51 | 36.91297 | 135.88617 | 36938 ft | 594 kts | 57° |
| 2026-05-08 17:52 | 36.95515 | 135.97519 | 36940 ft | 596 kts | 56° |
| 2026-05-08 17:53 | 37.01854 | 136.10936 | 36939 ft | 598 kts | 57° |
| 2026-05-08 17:53 | 37.06055 | 136.19858 | 36937 ft | 592 kts | 58° |
| 2026-05-08 17:54 | 37.10228 | 136.28746 | 36939 ft | 594 kts | 57° |
| 2026-05-08 17:54 | 37.14428 | 136.37715 | 36917 ft | 597 kts | 58° |
| 2026-05-08 17:55 | 37.18595 | 136.46645 | 36920 ft | 591 kts | 57° |
| 2026-05-08 17:55 | 37.22742 | 136.55547 | 36923 ft | 592 kts | 57° |
| 2026-05-08 17:56 | 37.26870 | 136.64435 | 36898 ft | 593 kts | 57° |
| 2026-05-08 17:56 | 37.31016 | 136.73386 | 36897 ft | 591 kts | 58° |
| 2026-05-08 17:57 | 37.35141 | 136.82314 | 36849 ft | 593 kts | 58° |
| 2026-05-08 17:57 | 37.39236 | 136.91205 | 36862 ft | 589 kts | 58° |
| 2026-05-08 17:58 | 37.43363 | 137.00186 | 36887 ft | 593 kts | 58° |
| 2026-05-08 17:58 | 37.47454 | 137.09116 | 36878 ft | 589 kts | 59° |
| 2026-05-08 17:59 | 37.51545 | 137.18068 | 36888 ft | 591 kts | 59° |
| 2026-05-08 17:59 | 37.55606 | 137.26978 | 36895 ft | 589 kts | 59° |
| 2026-05-08 18:00 | 37.58988 | 137.34416 | 36839 ft | 588 kts | 59° |
| 2026-05-08 18:00 | 37.65763 | 137.49381 | 36874 ft | 588 kts | 59° |
| 2026-05-08 18:01 | 37.69811 | 137.58360 | 36848 ft | 589 kts | 59° |
| 2026-05-08 18:01 | 37.73863 | 137.67352 | 36833 ft | 589 kts | 60° |
| 2026-05-08 18:02 | 37.77229 | 137.74847 | 36858 ft | 589 kts | 60° |
| 2026-05-08 18:02 | 37.81955 | 137.85413 | 36840 ft | 587 kts | 60° |
| 2026-05-08 18:03 | 37.85967 | 137.94408 | 36845 ft | 590 kts | 60° |
| 2026-05-08 18:03 | 37.89986 | 138.03426 | 36808 ft | 590 kts | 60° |
| 2026-05-08 18:04 | 37.93987 | 138.12444 | 36919 ft | 590 kts | 61° |
| 2026-05-08 18:04 | 37.98013 | 138.21542 | 36708 ft | 590 kts | 61° |
| 2026-05-08 18:05 | 38.00039 | 138.26134 | 36832 ft | 594 kts | 60° |
| 2026-05-08 18:05 | 38.02044 | 138.30684 | 36836 ft | 597 kts | 60° |
| 2026-05-08 18:05 | 38.06727 | 138.39259 | 36818 ft | 585 kts | 44° |
| 2026-05-08 18:06 | 38.12852 | 138.46086 | 36808 ft | 583 kts | 27° |
| 2026-05-08 18:06 | 38.19590 | 138.51668 | 36791 ft | 576 kts | 26° |
| 2026-05-08 18:07 | 38.26282 | 138.57152 | 36813 ft | 575 kts | 26° |
| 2026-05-08 18:07 | 38.32987 | 138.62662 | 36797 ft | 571 kts | 26° |
| 2026-05-08 18:08 | 38.39742 | 138.68224 | 36791 ft | 577 kts | 26° |
| 2026-05-08 18:08 | 38.46431 | 138.73753 | 36770 ft | 572 kts | 28° |
| 2026-05-08 18:09 | 38.53197 | 138.79353 | 36773 ft | 579 kts | 27° |
| 2026-05-08 18:09 | 38.59855 | 138.84888 | 36768 ft | 570 kts | 27° |
| 2026-05-08 18:10 | 38.66576 | 138.90475 | 36773 ft | 575 kts | 28° |
| 2026-05-08 18:10 | 38.73223 | 138.96022 | 36778 ft | 573 kts | 27° |
| 2026-05-08 18:11 | 38.79918 | 139.01619 | 36753 ft | 571 kts | 27° |
| 2026-05-08 18:11 | 38.86609 | 139.07227 | 36743 ft | 569 kts | 27° |
| 2026-05-08 18:12 | 38.93277 | 139.12825 | 36751 ft | 572 kts | 28° |
| 2026-05-08 18:12 | 38.99890 | 139.18391 | 36763 ft | 570 kts | 28° |
| 2026-05-08 18:13 | 39.06521 | 139.23987 | 36754 ft | 569 kts | 28° |
| 2026-05-08 18:13 | 39.13197 | 139.29629 | 36745 ft | 572 kts | 28° |
| 2026-05-08 18:14 | 39.19797 | 139.35226 | 36742 ft | 569 kts | 28° |
| 2026-05-08 18:14 | 39.26426 | 139.40857 | 36732 ft | 569 kts | 28° |
| 2026-05-08 18:15 | 39.33007 | 139.46460 | 36737 ft | 567 kts | 28° |
| 2026-05-08 18:15 | 39.39621 | 139.52104 | 36737 ft | 569 kts | 28° |
| 2026-05-08 18:16 | 39.46211 | 139.57742 | 36729 ft | 565 kts | 29° |
| 2026-05-08 18:16 | 39.52771 | 139.63365 | 36726 ft | 568 kts | 29° |
| 2026-05-08 18:17 | 39.59303 | 139.68980 | 36715 ft | 563 kts | 30° |
| 2026-05-08 18:17 | 39.65880 | 139.74643 | 36710 ft | 567 kts | 30° |
| 2026-05-08 18:18 | 39.72459 | 139.80324 | 36712 ft | 565 kts | 30° |
| 2026-05-08 18:18 | 39.78989 | 139.85976 | 36716 ft | 565 kts | 30° |
| 2026-05-08 18:19 | 39.85512 | 139.91664 | 36708 ft | 565 kts | 30° |
| 2026-05-08 18:19 | 39.92027 | 139.97397 | 36717 ft | 566 kts | 31° |
| 2026-05-08 18:20 | 39.98558 | 140.03155 | 36715 ft | 568 kts | 30° |
| 2026-05-08 18:20 | 40.05084 | 140.08923 | 36718 ft | 563 kts | 31° |
| 2026-05-08 18:21 | 40.11618 | 140.14708 | 36717 ft | 568 kts | 31° |
| 2026-05-08 18:21 | 40.18096 | 140.20458 | 36692 ft | 566 kts | 31° |
| 2026-05-08 18:22 | 40.24635 | 140.26276 | 36676 ft | 568 kts | 31° |
| 2026-05-08 18:22 | 40.31125 | 140.32063 | 36684 ft | 565 kts | 31° |
| 2026-05-08 18:23 | 40.37682 | 140.37923 | 36654 ft | 567 kts | 31° |
| 2026-05-08 18:23 | 40.44172 | 140.43739 | 36619 ft | 565 kts | 31° |
| 2026-05-08 18:24 | 40.50705 | 140.49606 | 36661 ft | 569 kts | 31° |
| 2026-05-08 18:24 | 40.57224 | 140.55475 | 36667 ft | 569 kts | 31° |
| 2026-05-08 18:25 | 40.63760 | 140.61372 | 36657 ft | 570 kts | 31° |
| 2026-05-08 18:25 | 40.70316 | 140.67303 | 36652 ft | 568 kts | 32° |
| 2026-05-08 18:26 | 40.77091 | 140.72127 | 36627 ft | 560 kts | 17° |
| 2026-05-08 18:26 | 40.84385 | 140.75716 | 36643 ft | 559 kts | 15° |
| 2026-05-08 18:27 | 40.90512 | 140.78696 | 36639 ft | 561 kts | 16° |
| 2026-05-08 18:27 | 40.99001 | 140.82878 | 36649 ft | 558 kts | 15° |
| 2026-05-08 18:28 | 41.06308 | 140.86496 | 36649 ft | 558 kts | 16° |
| 2026-05-08 18:28 | 41.13607 | 140.90120 | 36577 ft | 558 kts | 16° |
| 2026-05-08 18:29 | 41.20927 | 140.93764 | 36602 ft | 561 kts | 16° |
| 2026-05-08 18:29 | 41.28190 | 140.97391 | 36588 ft | 560 kts | 16° |
| 2026-05-08 18:30 | 41.35514 | 141.01027 | 36594 ft | 560 kts | 15° |
| 2026-05-08 18:30 | 41.42822 | 141.04652 | 36585 ft | 562 kts | 19° |
| 2026-05-08 18:31 | 41.49631 | 141.09828 | 36603 ft | 566 kts | 34° |
| 2026-05-08 18:31 | 41.56027 | 141.16042 | 36596 ft | 567 kts | 34° |
| 2026-05-08 18:32 | 41.62359 | 141.22240 | 36430 ft | 560 kts | 34° |
| 2026-05-08 18:32 | 41.65498 | 141.25317 | 35563 ft | 566 kts | 34° |
| 2026-05-08 18:32 | 41.68690 | 141.28447 | 34593 ft | 573 kts | 35° |
| 2026-05-08 18:33 | 41.71923 | 141.31624 | 33658 ft | 579 kts | 35° |
| 2026-05-08 18:33 | 41.75150 | 141.34796 | 32794 ft | 583 kts | 35° |
| 2026-05-08 18:33 | 41.78431 | 141.38026 | 31884 ft | 588 kts | 35° |
| 2026-05-08 18:33 | 41.81801 | 141.41156 | 30905 ft | 592 kts | 30° |
| 2026-05-08 18:34 | 41.85464 | 141.43733 | 30031 ft | 590 kts | 21° |
| 2026-05-08 18:34 | 41.89280 | 141.45599 | 29495 ft | 580 kts | 13° |
| 2026-05-08 18:34 | 41.93181 | 141.46887 | 28942 ft | 573 kts | 9° |
| 2026-05-08 18:34 | 41.97058 | 141.48006 | 28344 ft | 568 kts | 8° |
| 2026-05-08 18:35 | 42.00890 | 141.49091 | 27728 ft | 564 kts | 9° |
| 2026-05-08 18:35 | 42.04736 | 141.50176 | 27091 ft | 560 kts | 9° |
| 2026-05-08 18:35 | 42.08489 | 141.51320 | 26456 ft | 557 kts | 14° |
| 2026-05-08 18:35 | 42.12147 | 141.53062 | 25824 ft | 553 kts | 23° |
| 2026-05-08 18:36 | 42.15541 | 141.55421 | 25166 ft | 547 kts | 33° |
| 2026-05-08 18:36 | 42.18659 | 141.58292 | 24497 ft | 534 kts | 38° |
| 2026-05-08 18:36 | 42.21582 | 141.61204 | 23903 ft | 520 kts | 39° |
| 2026-05-08 18:36 | 42.24448 | 141.64082 | 23241 ft | 508 kts | 39° |
| 2026-05-08 18:37 | 42.27238 | 141.66891 | 22622 ft | 495 kts | 40° |
| 2026-05-08 18:37 | 42.29989 | 141.69665 | 22014 ft | 483 kts | 40° |
| 2026-05-08 18:37 | 42.32618 | 141.72319 | 21423 ft | 472 kts | 40° |
| 2026-05-08 18:37 | 42.35231 | 141.74960 | 20830 ft | 462 kts | 39° |
| 2026-05-08 18:38 | 42.37782 | 141.77547 | 20229 ft | 452 kts | 39° |
| 2026-05-08 18:38 | 42.40261 | 141.80060 | 19696 ft | 445 kts | 39° |
| 2026-05-08 18:38 | 42.42757 | 141.82593 | 19102 ft | 455 kts | 39° |
| 2026-05-08 18:38 | 42.45275 | 141.85153 | 18452 ft | 458 kts | 39° |
| 2026-05-08 18:39 | 42.47819 | 141.87744 | 17819 ft | 455 kts | 38° |
| 2026-05-08 18:39 | 42.50417 | 141.90234 | 17214 ft | 451 kts | 32° |
| 2026-05-08 18:39 | 42.53200 | 141.92127 | 16576 ft | 447 kts | 21° |
| 2026-05-08 18:39 | 42.56142 | 141.93346 | 15981 ft | 441 kts | 11° |
| 2026-05-08 18:40 | 42.59182 | 141.93877 | 15349 ft | 434 kts | 0° |
| 2026-05-08 18:40 | 42.62176 | 141.93720 | 14716 ft | 428 kts | 352° |
| 2026-05-08 18:40 | 42.65076 | 141.93218 | 14125 ft | 421 kts | 350° |
| 2026-05-08 18:40 | 42.67952 | 141.92671 | 13544 ft | 407 kts | 350° |
| 2026-05-08 18:41 | 42.70696 | 141.92129 | 12911 ft | 396 kts | 350° |
| 2026-05-08 18:41 | 42.73373 | 141.91586 | 12314 ft | 385 kts | 349° |
| 2026-05-08 18:41 | 42.76004 | 141.91042 | 11740 ft | 371 kts | 349° |
| 2026-05-08 18:41 | 42.78502 | 141.90518 | 11193 ft | 361 kts | 349° |
| 2026-05-08 18:42 | 42.80953 | 141.89998 | 10640 ft | 352 kts | 349° |
| 2026-05-08 18:42 | 42.83340 | 141.89485 | 10075 ft | 345 kts | 349° |
| 2026-05-08 18:42 | 42.85645 | 141.88988 | 9635 ft | 332 kts | 349° |
| 2026-05-08 18:42 | 42.87891 | 141.88500 | 9199 ft | 320 kts | 349° |
| 2026-05-08 18:43 | 42.90068 | 141.88025 | 8579 ft | 315 kts | 349° |
| 2026-05-08 18:43 | 42.92186 | 141.87561 | 8175 ft | 301 kts | 349° |
| 2026-05-08 18:43 | 42.94258 | 141.87105 | 7749 ft | 304 kts | 349° |
| 2026-05-08 18:43 | 42.96372 | 141.86639 | 7365 ft | 303 kts | 349° |
| 2026-05-08 18:44 | 42.98390 | 141.86195 | 7358 ft | 289 kts | 349° |
| 2026-05-08 18:44 | 43.00343 | 141.85768 | 7224 ft | 281 kts | 349° |
| 2026-05-08 18:44 | 43.02281 | 141.85344 | 6895 ft | 281 kts | 349° |
| 2026-05-08 18:44 | 43.04224 | 141.84859 | 6561 ft | 280 kts | 340° |
| 2026-05-08 18:45 | 43.05868 | 141.83598 | 6237 ft | 272 kts | 313° |
| 2026-05-08 18:45 | 43.06893 | 141.81503 | 5847 ft | 264 kts | 284° |
| 2026-05-08 18:45 | 43.07119 | 141.79056 | 5415 ft | 258 kts | 259° |
| 2026-05-08 18:45 | 43.06578 | 141.76762 | 5088 ft | 251 kts | 239° |
| 2026-05-08 18:46 | 43.05690 | 141.74762 | 4867 ft | 245 kts | 232° |
| 2026-05-08 18:46 | 43.04549 | 141.73065 | 4647 ft | 240 kts | 216° |
| 2026-05-08 18:46 | 43.03183 | 141.71796 | 4465 ft | 234 kts | 212° |
| 2026-05-08 18:46 | 43.01841 | 141.70609 | 4280 ft | 230 kts | 212° |
| 2026-05-08 18:47 | 43.00502 | 141.69414 | 4087 ft | 226 kts | 212° |
| 2026-05-08 18:47 | 42.99203 | 141.68247 | 3901 ft | 222 kts | 211° |
| 2026-05-08 18:47 | 42.97916 | 141.67093 | 3704 ft | 218 kts | 211° |
| 2026-05-08 18:47 | 42.96562 | 141.66304 | 3510 ft | 211 kts | 186° |
| 2026-05-08 18:48 | 42.95114 | 141.66312 | 3271 ft | 210 kts | 175° |
| 2026-05-08 18:48 | 42.93659 | 141.66551 | 2975 ft | 212 kts | 173° |
| 2026-05-08 18:48 | 42.92181 | 141.66821 | 2678 ft | 213 kts | 173° |
| 2026-05-08 18:48 | 42.90694 | 141.67087 | 2396 ft | 214 kts | 173° |
| 2026-05-08 18:49 | 42.89212 | 141.67351 | 2111 ft | 215 kts | 173° |
| 2026-05-08 18:49 | 42.87752 | 141.67610 | 1985 ft | 209 kts | 173° |
| 2026-05-08 18:49 | 42.86339 | 141.67859 | 1971 ft | 198 kts | 173° |
| 2026-05-08 18:49 | 42.84996 | 141.68095 | 1970 ft | 193 kts | 173° |
| 2026-05-08 18:50 | 42.83667 | 141.68330 | 1967 ft | 193 kts | 173° |
| 2026-05-08 18:50 | 42.82322 | 141.68568 | 1967 ft | 193 kts | 173° |
| 2026-05-08 18:50 | 42.80992 | 141.68802 | 1981 ft | 194 kts | 173° |
| 2026-05-08 18:50 | 42.79725 | 141.69318 | 1959 ft | 187 kts | 145° |
| 2026-05-08 18:51 | 42.79013 | 141.70706 | 1944 ft | 176 kts | 105° |
| 2026-05-08 18:51 | 42.79059 | 141.72336 | 1902 ft | 173 kts | 84° |
| 2026-05-08 18:51 | 42.79282 | 141.73959 | 1887 ft | 179 kts | 83° |
| 2026-05-08 18:51 | 42.79533 | 141.75810 | 2020 ft | 221 kts | 83° |
| 2026-05-08 18:52 | 42.79816 | 141.77914 | 1990 ft | 229 kts | 83° |
| 2026-05-08 18:52 | 42.80099 | 141.80046 | 1987 ft | 227 kts | 83° |
| 2026-05-08 18:52 | 42.80379 | 141.82155 | 1982 ft | 227 kts | 83° |
| 2026-05-08 18:52 | 42.80659 | 141.84258 | 1986 ft | 226 kts | 83° |
| 2026-05-08 18:53 | 42.80947 | 141.86381 | 1982 ft | 228 kts | 81° |
| 2026-05-08 18:53 | 42.81657 | 141.88351 | 1972 ft | 233 kts | 51° |
| 2026-05-08 18:53 | 42.83033 | 141.89517 | 1964 ft | 241 kts | 17° |
| 2026-05-08 18:53 | 42.84704 | 141.89723 | 1982 ft | 242 kts | 1° |
| 2026-05-08 18:54 | 42.86387 | 141.89728 | 1969 ft | 240 kts | 0° |
| 2026-05-08 18:54 | 42.88079 | 141.89723 | 1970 ft | 240 kts | 0° |
| 2026-05-08 18:54 | 42.89745 | 141.89714 | 1957 ft | 239 kts | 0° |
| 2026-05-08 18:54 | 42.91418 | 141.89700 | 1956 ft | 240 kts | 0° |
| 2026-05-08 18:55 | 42.94770 | 141.89673 | 1963 ft | 239 kts | 0° |
| 2026-05-08 18:55 | 42.96452 | 141.89656 | 1964 ft | 239 kts | 0° |
| 2026-05-08 18:55 | 42.98120 | 141.89641 | 1958 ft | 237 kts | 359° |
| 2026-05-08 18:56 | 42.99690 | 141.89102 | 1953 ft | 238 kts | 329° |
| 2026-05-08 18:56 | 43.00850 | 141.87518 | 1945 ft | 236 kts | 296° |
| 2026-05-08 18:56 | 43.01252 | 141.85385 | 1955 ft | 228 kts | 271° |
| 2026-05-08 18:56 | 43.01324 | 141.83237 | 1960 ft | 229 kts | 269° |
| 2026-05-08 18:57 | 43.01384 | 141.81114 | 1957 ft | 215 kts | 269° |
| 2026-05-08 18:57 | 43.01377 | 141.79787 | 1951 ft | 204 kts | 257° |
| 2026-05-08 18:57 | 43.00740 | 141.77528 | 1954 ft | 186 kts | 241° |
| 2026-05-08 18:57 | 43.00191 | 141.75951 | 1955 ft | 181 kts | 241° |
| 2026-05-08 18:58 | 42.99640 | 141.74376 | 1956 ft | 184 kts | 241° |
| 2026-05-08 18:58 | 42.99094 | 141.72812 | 1964 ft | 182 kts | 241° |
| 2026-05-08 18:58 | 42.98549 | 141.71254 | 1964 ft | 182 kts | 241° |
| 2026-05-08 18:58 | 42.98025 | 141.69754 | 1956 ft | 167 kts | 241° |
| 2026-05-08 18:59 | 42.97529 | 141.68338 | 1969 ft | 162 kts | 241° |
| 2026-05-08 18:59 | 42.96965 | 141.67038 | 1957 ft | 157 kts | 221° |
| 2026-05-08 18:59 | 42.96048 | 141.66231 | 1956 ft | 156 kts | 194° |
| 2026-05-08 18:59 | 42.94993 | 141.66284 | 1977 ft | 155 kts | 171° |
| 2026-05-08 19:00 | 42.94279 | 141.66458 | 1978 ft | 153 kts | 171° |
| 2026-05-08 19:00 | 42.92912 | 141.66716 | 1966 ft | 140 kts | 173° |
| 2026-05-08 19:00 | 42.91961 | 141.66879 | 1968 ft | 136 kts | 173° |
| 2026-05-08 19:00 | 42.91038 | 141.67040 | 1973 ft | 131 kts | 173° |
| 2026-05-08 19:01 | 42.90129 | 141.67198 | 1969 ft | 132 kts | 173° |
| 2026-05-08 19:01 | 42.89214 | 141.67360 | 1970 ft | 131 kts | 173° |
| 2026-05-08 19:01 | 42.88301 | 141.67520 | 1957 ft | 133 kts | 173° |
| 2026-05-08 19:01 | 42.87382 | 141.67682 | 1779 ft | 133 kts | 172° |
| 2026-05-08 19:02 | 42.86456 | 141.67833 | 1602 ft | 132 kts | 173° |
| 2026-05-08 19:02 | 42.85540 | 141.68012 | 1416 ft | 133 kts | 171° |
| 2026-05-08 19:02 | 42.84627 | 141.68169 | 1237 ft | 132 kts | 173° |
| 2026-05-08 19:02 | 42.83707 | 141.68332 | 1057 ft | 133 kts | 172° |
| 2026-05-08 19:03 | 42.82780 | 141.68491 | 883 ft | 134 kts | 173° |
| 2026-05-08 19:03 | 42.81842 | 141.68646 | 714 ft | 134 kts | 172° |
| 2026-05-08 19:03 | 42.80910 | 141.68828 | 517 ft | 134 kts | 172° |
| 2026-05-08 19:03 | 42.79993 | 141.68964 | 344 ft | 133 kts | 173° |
| 2026-05-08 19:04 | 42.79062 | 141.69141 | 159 ft | 133 kts | 173° |
| 2026-05-08 19:04 | 42.78171 | 141.69298 | 73 ft | 113 kts | 173° |
| 2026-05-08 19:04 | 42.77570 | 141.69406 | 74 ft | 57 kts | 173° |
| 2026-05-08 19:04 | 42.77343 | 141.69409 | 76 ft | 25 kts | 194° |
| 2026-05-08 19:05 | 42.77185 | 141.69328 | 76 ft | 22 kts | 202° |
| 2026-05-08 19:05 | 42.77089 | 141.69261 | 78 ft | 12 kts | 225° |
| 2026-05-08 19:05 | 42.77068 | 141.69170 | 79 ft | 10 kts | 263° |
| 2026-05-08 19:05 | 42.77058 | 141.69066 | 80 ft | 11 kts | 263° |
| 2026-05-08 19:06 | 42.77055 | 141.68962 | 82 ft | 9 kts | 286° |
| 2026-05-08 19:06 | 42.77108 | 141.68893 | 81 ft | 13 kts | 341° |
| 2026-05-08 19:06 | 42.77223 | 141.68869 | 82 ft | 19 kts | 353° |
| 2026-05-08 19:06 | 42.77375 | 141.68843 | 82 ft | 24 kts | 353° |
| 2026-05-08 19:07 | 42.77497 | 141.68820 | 83 ft | 10 kts | 338° |
| 2026-05-08 19:07 | 42.77516 | 141.68712 | 83 ft | 15 kts | 263° |
| 2026-05-08 19:07 | 42.77499 | 141.68544 | 83 ft | 20 kts | 262° |
| 2026-05-08 19:07 | 42.77479 | 141.68333 | 85 ft | 23 kts | 261° |
| 2026-05-08 19:08 | 42.77482 | 141.68153 | 86 ft | 18 kts | 289° |
| 2026-05-08 19:08 | 42.77526 | 141.67975 | 89 ft | 21 kts | 288° |
| 2026-05-08 19:08 | 42.77575 | 141.67769 | 90 ft | 24 kts | 287° |
| 2026-05-08 19:08 | 42.77623 | 141.67587 | 92 ft | 14 kts | 310° |
| 2026-05-08 19:09 | 42.77727 | 141.67551 | 92 ft | 17 kts | 354° |
| 2026-05-08 19:09 | 42.77864 | 141.67528 | 92 ft | 21 kts | 353° |
| 2026-05-08 19:09 | 42.78028 | 141.67499 | 92 ft | 25 kts | 353° |
| 2026-05-08 19:09 | 42.78216 | 141.67465 | 92 ft | 28 kts | 353° |
| 2026-05-08 19:10 | 42.78393 | 141.67433 | 90 ft | 15 kts | 352° |
| 2026-05-08 19:10 | 42.78460 | 141.67427 | 89 ft | 1 kts | 29° |
| 2026-05-08 19:10 | 42.78474 | 141.67458 | 89 ft | 5 kts | 65° |
| 2026-05-08 19:10 | 42.78482 | 141.67493 | 89 ft | 3 kts | 87° |
| 2026-05-08 19:11 | 42.78484 | 141.67516 | 89 ft | 2 kts | 85° |
| 2026-05-08 19:11 | 42.78484 | 141.67519 | 89 ft | 0 kts | 84° |